sensor_id;sensor_type;location;lat;lon;timestamp;P1;durP1;ratioP1;P2;durP2;ratioP2
76119;SDS011;64852;48.092;-1.640;2023-01-28T00:00:52;13.27;;;12.23;;
76119;SDS011;64852;48.092;-1.640;2023-01-28T00:03:18;12.60;;;11.90;;
76119;SDS011;64852;48.092;-1.640;2023-01-28T00:05:43;12.90;;;12.05;;
76119;SDS011;64852;48.092;-1.640;2023-01-28T00:08:09;13.55;;;12.75;;
76119;SDS011;64852;48.092;-1.640;2023-01-28T00:10:36;14.10;;;13.30;;
76119;SDS011;64852;48.092;-1.640;2023-01-28T00:13:04;13.57;;;12.68;;
76119;SDS011;64852;48.092;-1.640;2023-01-28T00:15:30;14.70;;;13.60;;
76119;SDS011;64852;48.092;-1.640;2023-01-28T00:17:56;12.88;;;12.18;;
76119;SDS011;64852;48.092;-1.640;2023-01-28T00:20:21;13.63;;;12.82;;
76119;SDS011;64852;48.092;-1.640;2023-01-28T00:22:47;12.15;;;11.48;;
76119;SDS011;64852;48.092;-1.640;2023-01-28T00:25:13;12.55;;;11.88;;
76119;SDS011;64852;48.092;-1.640;2023-01-28T00:30:05;13.43;;;12.63;;
76119;SDS011;64852;48.092;-1.640;2023-01-28T00:32:31;14.70;;;13.50;;
76119;SDS011;64852;48.092;-1.640;2023-01-28T00:34:57;11.88;;;11.18;;
76119;SDS011;64852;48.092;-1.640;2023-01-28T00:37:22;14.23;;;13.23;;
76119;SDS011;64852;48.092;-1.640;2023-01-28T00:39:48;12.73;;;12.02;;
76119;SDS011;64852;48.092;-1.640;2023-01-28T00:42:14;12.05;;;11.30;;
76119;SDS011;64852;48.092;-1.640;2023-01-28T00:44:40;12.43;;;11.73;;
76119;SDS011;64852;48.092;-1.640;2023-01-28T00:47:06;11.85;;;11.25;;
76119;SDS011;64852;48.092;-1.640;2023-01-28T00:49:32;12.95;;;12.02;;
76119;SDS011;64852;48.092;-1.640;2023-01-28T00:51:58;11.88;;;11.27;;
76119;SDS011;64852;48.092;-1.640;2023-01-28T00:54:23;12.68;;;11.98;;
76119;SDS011;64852;48.092;-1.640;2023-01-28T00:56:49;11.80;;;11.20;;
76119;SDS011;64852;48.092;-1.640;2023-01-28T00:59:17;12.82;;;12.13;;
76119;SDS011;64852;48.092;-1.640;2023-01-28T01:01:43;12.10;;;11.20;;
76119;SDS011;64852;48.092;-1.640;2023-01-28T01:04:09;11.73;;;11.02;;
76119;SDS011;64852;48.092;-1.640;2023-01-28T01:06:35;12.38;;;11.68;;
76119;SDS011;64852;48.092;-1.640;2023-01-28T01:09:03;12.02;;;11.35;;
76119;SDS011;64852;48.092;-1.640;2023-01-28T01:11:30;12.63;;;11.93;;
76119;SDS011;64852;48.092;-1.640;2023-01-28T01:13:56;12.20;;;11.55;;
76119;SDS011;64852;48.092;-1.640;2023-01-28T01:16:24;13.35;;;12.02;;
76119;SDS011;64852;48.092;-1.640;2023-01-28T01:18:52;12.57;;;11.88;;
76119;SDS011;64852;48.092;-1.640;2023-01-28T01:23:45;11.80;;;11.20;;
76119;SDS011;64852;48.092;-1.640;2023-01-28T01:28:37;11.50;;;10.90;;
76119;SDS011;64852;48.092;-1.640;2023-01-28T01:31:04;12.93;;;12.13;;
76119;SDS011;64852;48.092;-1.640;2023-01-28T01:33:30;11.35;;;10.75;;
76119;SDS011;64852;48.092;-1.640;2023-01-28T01:35:56;13.20;;;12.32;;
76119;SDS011;64852;48.092;-1.640;2023-01-28T01:38:22;12.93;;;12.18;;
76119;SDS011;64852;48.092;-1.640;2023-01-28T01:40:49;12.18;;;11.57;;
76119;SDS011;64852;48.092;-1.640;2023-01-28T01:43:19;13.00;;;12.25;;
76119;SDS011;64852;48.092;-1.640;2023-01-28T01:45:50;12.60;;;11.90;;
76119;SDS011;64852;48.092;-1.640;2023-01-28T01:48:32;12.05;;;11.40;;
76119;SDS011;64852;48.092;-1.640;2023-01-28T01:51:09;12.68;;;11.98;;
76119;SDS011;64852;48.092;-1.640;2023-01-28T01:53:39;13.63;;;12.73;;
76119;SDS011;64852;48.092;-1.640;2023-01-28T01:56:08;12.57;;;11.88;;
76119;SDS011;64852;48.092;-1.640;2023-01-28T01:58:38;12.30;;;11.60;;
76119;SDS011;64852;48.092;-1.640;2023-01-28T02:01:06;12.65;;;11.95;;
76119;SDS011;64852;48.092;-1.640;2023-01-28T02:03:35;12.80;;;11.85;;
76119;SDS011;64852;48.092;-1.640;2023-01-28T02:06:08;12.80;;;12.10;;
76119;SDS011;64852;48.092;-1.640;2023-01-28T02:08:33;11.77;;;11.15;;
76119;SDS011;64852;48.092;-1.640;2023-01-28T02:11:04;12.38;;;11.68;;
76119;SDS011;64852;48.092;-1.640;2023-01-28T02:13:35;12.73;;;11.93;;
76119;SDS011;64852;48.092;-1.640;2023-01-28T02:16:16;12.05;;;11.05;;
76119;SDS011;64852;48.092;-1.640;2023-01-28T02:18:42;11.85;;;11.18;;
76119;SDS011;64852;48.092;-1.640;2023-01-28T02:27:05;13.82;;;12.63;;
76119;SDS011;64852;48.092;-1.640;2023-01-28T02:29:44;11.00;;;10.40;;
76119;SDS011;64852;48.092;-1.640;2023-01-28T02:35:14;11.43;;;10.83;;
76119;SDS011;64852;48.092;-1.640;2023-01-28T02:37:52;10.82;;;10.23;;
76119;SDS011;64852;48.092;-1.640;2023-01-28T02:40:36;11.63;;;11.00;;
76119;SDS011;64852;48.092;-1.640;2023-01-28T02:46:01;12.15;;;11.45;;
76119;SDS011;64852;48.092;-1.640;2023-01-28T02:49:20;14.93;;;13.38;;
76119;SDS011;64852;48.092;-1.640;2023-01-28T02:54:31;11.65;;;11.05;;
76119;SDS011;64852;48.092;-1.640;2023-01-28T03:00:09;11.45;;;10.85;;
76119;SDS011;64852;48.092;-1.640;2023-01-28T03:02:49;10.95;;;10.35;;
76119;SDS011;64852;48.092;-1.640;2023-01-28T03:05:30;11.55;;;10.95;;
76119;SDS011;64852;48.092;-1.640;2023-01-28T03:08:02;11.30;;;10.60;;
76119;SDS011;64852;48.092;-1.640;2023-01-28T03:10:49;12.98;;;11.68;;
76119;SDS011;64852;48.092;-1.640;2023-01-28T03:13:35;10.88;;;10.30;;
76119;SDS011;64852;48.092;-1.640;2023-01-28T03:16:21;10.77;;;10.15;;
76119;SDS011;64852;48.092;-1.640;2023-01-28T03:19:05;11.02;;;10.38;;
76119;SDS011;64852;48.092;-1.640;2023-01-28T03:21:51;10.43;;;9.82;;
76119;SDS011;64852;48.092;-1.640;2023-01-28T03:24:41;9.80;;;9.30;;
76119;SDS011;64852;48.092;-1.640;2023-01-28T03:30:54;10.20;;;9.60;;
76119;SDS011;64852;48.092;-1.640;2023-01-28T03:33:47;9.75;;;9.25;;
76119;SDS011;64852;48.092;-1.640;2023-01-28T03:36:33;9.40;;;8.90;;
76119;SDS011;64852;48.092;-1.640;2023-01-28T03:39:24;9.10;;;8.57;;
76119;SDS011;64852;48.092;-1.640;2023-01-28T03:42:07;9.23;;;8.70;;
76119;SDS011;64852;48.092;-1.640;2023-01-28T03:44:35;10.55;;;9.85;;
76119;SDS011;64852;48.092;-1.640;2023-01-28T03:47:13;9.60;;;9.10;;
76119;SDS011;64852;48.092;-1.640;2023-01-28T03:49:42;9.48;;;8.98;;
76119;SDS011;64852;48.092;-1.640;2023-01-28T03:52:15;9.55;;;9.05;;
76119;SDS011;64852;48.092;-1.640;2023-01-28T03:54:43;9.77;;;9.18;;
76119;SDS011;64852;48.092;-1.640;2023-01-28T03:57:16;9.18;;;8.68;;
76119;SDS011;64852;48.092;-1.640;2023-01-28T03:59:43;9.77;;;9.27;;
76119;SDS011;64852;48.092;-1.640;2023-01-28T04:02:09;10.45;;;9.90;;
76119;SDS011;64852;48.092;-1.640;2023-01-28T04:04:37;10.10;;;9.40;;
76119;SDS011;64852;48.092;-1.640;2023-01-28T04:07:03;10.50;;;9.90;;
76119;SDS011;64852;48.092;-1.640;2023-01-28T04:09:29;10.38;;;9.88;;
76119;SDS011;64852;48.092;-1.640;2023-01-28T04:11:55;9.87;;;9.37;;
76119;SDS011;64852;48.092;-1.640;2023-01-28T04:14:21;10.40;;;9.90;;
76119;SDS011;64852;48.092;-1.640;2023-01-28T04:16:46;9.75;;;9.25;;
76119;SDS011;64852;48.092;-1.640;2023-01-28T04:19:12;9.73;;;9.05;;
76119;SDS011;64852;48.092;-1.640;2023-01-28T04:21:38;11.00;;;10.30;;
76119;SDS011;64852;48.092;-1.640;2023-01-28T04:24:04;10.27;;;9.68;;
76119;SDS011;64852;48.092;-1.640;2023-01-28T04:26:30;10.70;;;10.10;;
76119;SDS011;64852;48.092;-1.640;2023-01-28T04:28:55;10.20;;;9.63;;
76119;SDS011;64852;48.092;-1.640;2023-01-28T04:31:21;9.82;;;9.25;;
76119;SDS011;64852;48.092;-1.640;2023-01-28T04:33:47;9.35;;;8.85;;
76119;SDS011;64852;48.092;-1.640;2023-01-28T04:36:14;10.27;;;9.63;;
76119;SDS011;64852;48.092;-1.640;2023-01-28T04:38:40;10.35;;;9.75;;
76119;SDS011;64852;48.092;-1.640;2023-01-28T04:41:05;10.00;;;9.50;;
76119;SDS011;64852;48.092;-1.640;2023-01-28T04:43:31;10.30;;;9.73;;
76119;SDS011;64852;48.092;-1.640;2023-01-28T04:45:57;9.88;;;9.38;;
76119;SDS011;64852;48.092;-1.640;2023-01-28T04:48:22;9.50;;;8.95;;
76119;SDS011;64852;48.092;-1.640;2023-01-28T04:50:48;8.35;;;7.95;;
76119;SDS011;64852;48.092;-1.640;2023-01-28T04:53:14;9.83;;;9.33;;
76119;SDS011;64852;48.092;-1.640;2023-01-28T04:55:39;9.25;;;8.75;;
76119;SDS011;64852;48.092;-1.640;2023-01-28T04:58:05;11.55;;;10.60;;
76119;SDS011;64852;48.092;-1.640;2023-01-28T05:00:31;10.02;;;9.52;;
76119;SDS011;64852;48.092;-1.640;2023-01-28T05:02:57;10.75;;;10.15;;
76119;SDS011;64852;48.092;-1.640;2023-01-28T05:05:23;9.80;;;9.30;;
76119;SDS011;64852;48.092;-1.640;2023-01-28T05:07:52;9.93;;;9.32;;
76119;SDS011;64852;48.092;-1.640;2023-01-28T05:10:19;9.73;;;9.18;;
76119;SDS011;64852;48.092;-1.640;2023-01-28T05:15:12;9.82;;;9.23;;
76119;SDS011;64852;48.092;-1.640;2023-01-28T05:17:38;9.70;;;9.10;;
76119;SDS011;64852;48.092;-1.640;2023-01-28T05:20:04;13.40;;;8.85;;
76119;SDS011;64852;48.092;-1.640;2023-01-28T05:22:30;11.00;;;10.40;;
76119;SDS011;64852;48.092;-1.640;2023-01-28T05:24:56;10.38;;;9.80;;
76119;SDS011;64852;48.092;-1.640;2023-01-28T05:27:22;9.80;;;9.30;;
76119;SDS011;64852;48.092;-1.640;2023-01-28T05:29:47;10.07;;;9.43;;
76119;SDS011;64852;48.092;-1.640;2023-01-28T05:32:13;9.97;;;9.37;;
76119;SDS011;64852;48.092;-1.640;2023-01-28T05:34:38;9.05;;;8.55;;
76119;SDS011;64852;48.092;-1.640;2023-01-28T05:37:04;9.95;;;9.30;;
76119;SDS011;64852;48.092;-1.640;2023-01-28T05:39:30;9.85;;;9.27;;
76119;SDS011;64852;48.092;-1.640;2023-01-28T05:41:55;12.05;;;10.90;;
76119;SDS011;64852;48.092;-1.640;2023-01-28T05:44:21;10.20;;;9.70;;
76119;SDS011;64852;48.092;-1.640;2023-01-28T05:46:47;9.95;;;9.45;;
76119;SDS011;64852;48.092;-1.640;2023-01-28T05:49:13;10.00;;;9.50;;
76119;SDS011;64852;48.092;-1.640;2023-01-28T05:51:39;9.95;;;9.45;;
76119;SDS011;64852;48.092;-1.640;2023-01-28T05:56:31;8.82;;;8.32;;
76119;SDS011;64852;48.092;-1.640;2023-01-28T05:58:56;11.00;;;10.20;;
76119;SDS011;64852;48.092;-1.640;2023-01-28T06:01:22;9.80;;;9.30;;
76119;SDS011;64852;48.092;-1.640;2023-01-28T06:03:47;10.20;;;9.55;;
76119;SDS011;64852;48.092;-1.640;2023-01-28T06:06:13;10.48;;;9.88;;
76119;SDS011;64852;48.092;-1.640;2023-01-28T06:08:39;10.45;;;9.85;;
76119;SDS011;64852;48.092;-1.640;2023-01-28T06:13:31;9.60;;;9.10;;
76119;SDS011;64852;48.092;-1.640;2023-01-28T06:15:56;9.60;;;9.10;;
76119;SDS011;64852;48.092;-1.640;2023-01-28T06:18:22;9.15;;;8.65;;
76119;SDS011;64852;48.092;-1.640;2023-01-28T06:20:48;9.93;;;9.43;;
76119;SDS011;64852;48.092;-1.640;2023-01-28T06:23:15;9.38;;;8.77;;
76119;SDS011;64852;48.092;-1.640;2023-01-28T06:25:41;8.90;;;8.40;;
76119;SDS011;64852;48.092;-1.640;2023-01-28T06:28:07;10.98;;;10.27;;
76119;SDS011;64852;48.092;-1.640;2023-01-28T06:30:32;9.75;;;9.25;;
76119;SDS011;64852;48.092;-1.640;2023-01-28T06:32:58;10.38;;;9.77;;
76119;SDS011;64852;48.092;-1.640;2023-01-28T06:35:23;12.57;;;11.65;;
76119;SDS011;64852;48.092;-1.640;2023-01-28T06:37:49;10.90;;;10.30;;
76119;SDS011;64852;48.092;-1.640;2023-01-28T06:40:17;10.85;;;10.25;;
76119;SDS011;64852;48.092;-1.640;2023-01-28T06:42:43;9.68;;;9.18;;
76119;SDS011;64852;48.092;-1.640;2023-01-28T06:45:09;10.80;;;10.20;;
76119;SDS011;64852;48.092;-1.640;2023-01-28T06:47:35;10.77;;;9.82;;
76119;SDS011;64852;48.092;-1.640;2023-01-28T06:50:03;10.13;;;9.63;;
76119;SDS011;64852;48.092;-1.640;2023-01-28T06:52:28;11.20;;;10.50;;
76119;SDS011;64852;48.092;-1.640;2023-01-28T06:54:54;11.85;;;10.85;;
76119;SDS011;64852;48.092;-1.640;2023-01-28T06:57:20;11.45;;;10.73;;
76119;SDS011;64852;48.092;-1.640;2023-01-28T06:59:45;11.68;;;11.07;;
76119;SDS011;64852;48.092;-1.640;2023-01-28T07:02:11;11.20;;;10.60;;
76119;SDS011;64852;48.092;-1.640;2023-01-28T07:04:36;10.13;;;9.63;;
76119;SDS011;64852;48.092;-1.640;2023-01-28T07:07:02;11.75;;;11.02;;
76119;SDS011;64852;48.092;-1.640;2023-01-28T07:09:28;11.43;;;10.60;;
76119;SDS011;64852;48.092;-1.640;2023-01-28T07:11:53;11.25;;;10.65;;
76119;SDS011;64852;48.092;-1.640;2023-01-28T07:14:19;11.70;;;11.02;;
76119;SDS011;64852;48.092;-1.640;2023-01-28T07:16:45;11.98;;;11.27;;
76119;SDS011;64852;48.092;-1.640;2023-01-28T07:19:10;12.00;;;11.23;;
76119;SDS011;64852;48.092;-1.640;2023-01-28T07:21:36;12.45;;;11.75;;
76119;SDS011;64852;48.092;-1.640;2023-01-28T07:24:01;13.02;;;12.13;;
76119;SDS011;64852;48.092;-1.640;2023-01-28T07:26:29;12.43;;;11.70;;
76119;SDS011;64852;48.092;-1.640;2023-01-28T07:28:55;11.15;;;10.48;;
76119;SDS011;64852;48.092;-1.640;2023-01-28T07:31:21;12.20;;;11.30;;
76119;SDS011;64852;48.092;-1.640;2023-01-28T07:33:47;10.15;;;9.65;;
76119;SDS011;64852;48.092;-1.640;2023-01-28T07:36:12;10.75;;;10.15;;
76119;SDS011;64852;48.092;-1.640;2023-01-28T07:38:38;12.20;;;11.50;;
76119;SDS011;64852;48.092;-1.640;2023-01-28T07:41:03;11.57;;;10.88;;
76119;SDS011;64852;48.092;-1.640;2023-01-28T07:43:29;11.73;;;11.07;;
76119;SDS011;64852;48.092;-1.640;2023-01-28T07:45:58;10.90;;;10.30;;
76119;SDS011;64852;48.092;-1.640;2023-01-28T07:48:25;10.50;;;9.90;;
76119;SDS011;64852;48.092;-1.640;2023-01-28T07:50:50;11.73;;;10.93;;
76119;SDS011;64852;48.092;-1.640;2023-01-28T07:53:16;11.57;;;10.80;;
76119;SDS011;64852;48.092;-1.640;2023-01-28T07:55:42;13.43;;;12.52;;
76119;SDS011;64852;48.092;-1.640;2023-01-28T07:58:08;12.60;;;11.90;;
76119;SDS011;64852;48.092;-1.640;2023-01-28T08:00:35;13.15;;;12.30;;
76119;SDS011;64852;48.092;-1.640;2023-01-28T08:03:03;13.38;;;12.43;;
76119;SDS011;64852;48.092;-1.640;2023-01-28T08:05:35;11.30;;;10.65;;
76119;SDS011;64852;48.092;-1.640;2023-01-28T08:08:07;12.68;;;11.57;;
76119;SDS011;64852;48.092;-1.640;2023-01-28T08:10:34;12.63;;;11.73;;
76119;SDS011;64852;48.092;-1.640;2023-01-28T08:13:00;11.02;;;10.43;;
76119;SDS011;64852;48.092;-1.640;2023-01-28T08:15:26;12.77;;;11.98;;
76119;SDS011;64852;48.092;-1.640;2023-01-28T08:17:53;11.15;;;10.55;;
76119;SDS011;64852;48.092;-1.640;2023-01-28T08:20:19;11.85;;;11.15;;
76119;SDS011;64852;48.092;-1.640;2023-01-28T08:22:45;11.25;;;10.57;;
76119;SDS011;64852;48.092;-1.640;2023-01-28T08:25:11;12.23;;;11.52;;
76119;SDS011;64852;48.092;-1.640;2023-01-28T08:27:37;11.48;;;10.88;;
76119;SDS011;64852;48.092;-1.640;2023-01-28T08:30:03;12.45;;;11.63;;
76119;SDS011;64852;48.092;-1.640;2023-01-28T08:32:29;10.55;;;9.95;;
76119;SDS011;64852;48.092;-1.640;2023-01-28T08:34:55;11.48;;;10.82;;
76119;SDS011;64852;48.092;-1.640;2023-01-28T08:37:21;10.60;;;10.00;;
76119;SDS011;64852;48.092;-1.640;2023-01-28T08:39:47;10.85;;;10.20;;
76119;SDS011;64852;48.092;-1.640;2023-01-28T08:42:13;12.85;;;11.77;;
76119;SDS011;64852;48.092;-1.640;2023-01-28T08:44:38;11.45;;;10.75;;
76119;SDS011;64852;48.092;-1.640;2023-01-28T08:47:04;11.10;;;10.50;;
76119;SDS011;64852;48.092;-1.640;2023-01-28T08:49:30;12.38;;;11.63;;
76119;SDS011;64852;48.092;-1.640;2023-01-28T08:51:55;11.60;;;10.95;;
76119;SDS011;64852;48.092;-1.640;2023-01-28T08:54:21;12.07;;;11.27;;
76119;SDS011;64852;48.092;-1.640;2023-01-28T08:56:47;11.80;;;11.20;;
76119;SDS011;64852;48.092;-1.640;2023-01-28T08:59:13;12.20;;;11.50;;
76119;SDS011;64852;48.092;-1.640;2023-01-28T09:01:39;13.52;;;12.63;;
76119;SDS011;64852;48.092;-1.640;2023-01-28T09:04:05;11.80;;;11.18;;
76119;SDS011;64852;48.092;-1.640;2023-01-28T09:06:30;12.40;;;11.68;;
76119;SDS011;64852;48.092;-1.640;2023-01-28T09:08:57;12.13;;;11.48;;
76119;SDS011;64852;48.092;-1.640;2023-01-28T09:11:24;13.38;;;12.50;;
76119;SDS011;64852;48.092;-1.640;2023-01-28T09:16:16;11.13;;;10.52;;
76119;SDS011;64852;48.092;-1.640;2023-01-28T09:18:41;11.25;;;10.65;;
76119;SDS011;64852;48.092;-1.640;2023-01-28T09:21:07;13.45;;;12.55;;
76119;SDS011;64852;48.092;-1.640;2023-01-28T09:23:34;11.85;;;11.23;;
76119;SDS011;64852;48.092;-1.640;2023-01-28T09:26:00;12.35;;;11.43;;
76119;SDS011;64852;48.092;-1.640;2023-01-28T09:28:27;12.30;;;11.60;;
76119;SDS011;64852;48.092;-1.640;2023-01-28T09:30:59;11.52;;;10.85;;
76119;SDS011;64852;48.092;-1.640;2023-01-28T09:33:25;12.30;;;11.60;;
76119;SDS011;64852;48.092;-1.640;2023-01-28T09:35:51;11.73;;;11.02;;
76119;SDS011;64852;48.092;-1.640;2023-01-28T09:38:17;11.65;;;10.95;;
76119;SDS011;64852;48.092;-1.640;2023-01-28T09:40:42;12.13;;;11.35;;
76119;SDS011;64852;48.092;-1.640;2023-01-28T09:43:30;11.80;;;11.18;;
76119;SDS011;64852;48.092;-1.640;2023-01-28T09:46:10;10.75;;;10.15;;
76119;SDS011;64852;48.092;-1.640;2023-01-28T09:48:43;12.27;;;11.57;;
76119;SDS011;64852;48.092;-1.640;2023-01-28T09:51:25;13.52;;;12.43;;
76119;SDS011;64852;48.092;-1.640;2023-01-28T09:54:04;12.85;;;12.05;;
76119;SDS011;64852;48.092;-1.640;2023-01-28T09:56:40;12.70;;;12.00;;
76119;SDS011;64852;48.092;-1.640;2023-01-28T09:59:20;12.73;;;12.02;;
76119;SDS011;64852;48.092;-1.640;2023-01-28T10:04:21;13.97;;;13.17;;
76119;SDS011;64852;48.092;-1.640;2023-01-28T10:12:00;14.03;;;13.23;;
76119;SDS011;64852;48.092;-1.640;2023-01-28T10:19:50;14.23;;;13.23;;
76119;SDS011;64852;48.092;-1.640;2023-01-28T10:22:22;12.38;;;11.68;;
76119;SDS011;64852;48.092;-1.640;2023-01-28T10:24:55;12.07;;;11.38;;
76119;SDS011;64852;48.092;-1.640;2023-01-28T10:27:31;11.35;;;10.75;;
76119;SDS011;64852;48.092;-1.640;2023-01-28T10:29:58;15.38;;;13.77;;
76119;SDS011;64852;48.092;-1.640;2023-01-28T10:32:34;12.23;;;11.52;;
76119;SDS011;64852;48.092;-1.640;2023-01-28T10:35:08;11.32;;;10.63;;
76119;SDS011;64852;48.092;-1.640;2023-01-28T10:37:34;12.75;;;11.65;;
76119;SDS011;64852;48.092;-1.640;2023-01-28T10:40:02;11.38;;;10.68;;
76119;SDS011;64852;48.092;-1.640;2023-01-28T10:42:30;12.75;;;12.05;;
76119;SDS011;64852;48.092;-1.640;2023-01-28T10:45:07;17.65;;;13.27;;
76119;SDS011;64852;48.092;-1.640;2023-01-28T10:50:17;12.32;;;11.63;;
76119;SDS011;64852;48.092;-1.640;2023-01-28T10:52:51;12.82;;;12.02;;
76119;SDS011;64852;48.092;-1.640;2023-01-28T10:55:21;13.07;;;12.30;;
76119;SDS011;64852;48.092;-1.640;2023-01-28T10:57:48;12.80;;;12.10;;
76119;SDS011;64852;48.092;-1.640;2023-01-28T11:00:21;12.23;;;11.52;;
76119;SDS011;64852;48.092;-1.640;2023-01-28T11:02:54;11.13;;;10.52;;
76119;SDS011;64852;48.092;-1.640;2023-01-28T11:08:04;11.10;;;10.50;;
76119;SDS011;64852;48.092;-1.640;2023-01-28T11:10:36;11.52;;;10.93;;
76119;SDS011;64852;48.092;-1.640;2023-01-28T11:13:05;11.48;;;10.88;;
76119;SDS011;64852;48.092;-1.640;2023-01-28T11:18:30;13.23;;;12.52;;
76119;SDS011;64852;48.092;-1.640;2023-01-28T11:21:03;12.32;;;11.63;;
76119;SDS011;64852;48.092;-1.640;2023-01-28T11:23:45;10.60;;;10.00;;
76119;SDS011;64852;48.092;-1.640;2023-01-28T11:26:42;11.82;;;11.18;;
76119;SDS011;64852;48.092;-1.640;2023-01-28T11:31:54;11.25;;;10.65;;
76119;SDS011;64852;48.092;-1.640;2023-01-28T11:34:23;13.80;;;12.80;;
76119;SDS011;64852;48.092;-1.640;2023-01-28T11:36:54;11.88;;;11.02;;
76119;SDS011;64852;48.092;-1.640;2023-01-28T11:39:27;12.70;;;11.73;;
76119;SDS011;64852;48.092;-1.640;2023-01-28T11:41:54;12.73;;;11.85;;
76119;SDS011;64852;48.092;-1.640;2023-01-28T11:44:34;12.32;;;11.48;;
76119;SDS011;64852;48.092;-1.640;2023-01-28T11:57:42;11.63;;;10.93;;
76119;SDS011;64852;48.092;-1.640;2023-01-28T12:08:27;10.63;;;10.05;;
76119;SDS011;64852;48.092;-1.640;2023-01-28T12:20:27;13.85;;;12.70;;
76119;SDS011;64852;48.092;-1.640;2023-01-28T12:28:42;12.43;;;11.63;;
76119;SDS011;64852;48.092;-1.640;2023-01-28T12:40:20;11.32;;;10.73;;
76119;SDS011;64852;48.092;-1.640;2023-01-28T12:46:57;10.55;;;9.95;;
76119;SDS011;64852;48.092;-1.640;2023-01-28T12:54:18;10.15;;;9.60;;
76119;SDS011;64852;48.092;-1.640;2023-01-28T12:56:53;10.70;;;10.10;;
76119;SDS011;64852;48.092;-1.640;2023-01-28T12:59:41;31.15;;;10.15;;
76119;SDS011;64852;48.092;-1.640;2023-01-28T13:02:15;10.27;;;9.63;;
76119;SDS011;64852;48.092;-1.640;2023-01-28T13:10:02;8.90;;;8.40;;
76119;SDS011;64852;48.092;-1.640;2023-01-28T13:12:28;10.38;;;9.73;;
76119;SDS011;64852;48.092;-1.640;2023-01-28T13:14:57;10.93;;;10.10;;
76119;SDS011;64852;48.092;-1.640;2023-01-28T13:17:27;8.93;;;8.43;;
76119;SDS011;64852;48.092;-1.640;2023-01-28T13:19:57;9.27;;;8.77;;
76119;SDS011;64852;48.092;-1.640;2023-01-28T13:22:31;9.10;;;8.60;;
76119;SDS011;64852;48.092;-1.640;2023-01-28T13:25:18;9.32;;;8.82;;
76119;SDS011;64852;48.092;-1.640;2023-01-28T13:30:28;10.68;;;10.07;;
76119;SDS011;64852;48.092;-1.640;2023-01-28T13:33:00;10.82;;;10.23;;
76119;SDS011;64852;48.092;-1.640;2023-01-28T13:37:58;10.93;;;10.32;;
76119;SDS011;64852;48.092;-1.640;2023-01-28T13:40:30;9.80;;;9.30;;
76119;SDS011;64852;48.092;-1.640;2023-01-28T13:42:57;10.95;;;10.27;;
76119;SDS011;64852;48.092;-1.640;2023-01-28T13:45:25;10.52;;;9.93;;
76119;SDS011;64852;48.092;-1.640;2023-01-28T13:47:53;10.80;;;10.20;;
76119;SDS011;64852;48.092;-1.640;2023-01-28T13:50:24;12.10;;;11.40;;
76119;SDS011;64852;48.092;-1.640;2023-01-28T13:53:04;15.27;;;14.48;;
76119;SDS011;64852;48.092;-1.640;2023-01-28T13:55:52;13.27;;;12.48;;
76119;SDS011;64852;48.092;-1.640;2023-01-28T14:18:17;9.70;;;9.20;;
76119;SDS011;64852;48.092;-1.640;2023-01-28T14:20:53;9.93;;;9.13;;
76119;SDS011;64852;48.092;-1.640;2023-01-28T14:23:23;9.73;;;9.23;;
76119;SDS011;64852;48.092;-1.640;2023-01-28T14:31:00;9.02;;;8.43;;
76119;SDS011;64852;48.092;-1.640;2023-01-28T14:33:36;8.38;;;7.85;;
76119;SDS011;64852;48.092;-1.640;2023-01-28T14:36:02;8.32;;;7.82;;
76119;SDS011;64852;48.092;-1.640;2023-01-28T14:38:28;10.23;;;9.63;;
76119;SDS011;64852;48.092;-1.640;2023-01-28T14:40:58;8.88;;;8.38;;
76119;SDS011;64852;48.092;-1.640;2023-01-28T14:43:25;8.45;;;8.05;;
76119;SDS011;64852;48.092;-1.640;2023-01-28T14:49:04;8.90;;;8.40;;
76119;SDS011;64852;48.092;-1.640;2023-01-28T14:59:59;7.70;;;7.30;;
76119;SDS011;64852;48.092;-1.640;2023-01-28T15:02:29;7.63;;;7.22;;
76119;SDS011;64852;48.092;-1.640;2023-01-28T15:05:05;6.43;;;6.13;;
76119;SDS011;64852;48.092;-1.640;2023-01-28T15:07:42;6.88;;;6.38;;
76119;SDS011;64852;48.092;-1.640;2023-01-28T15:10:20;7.13;;;6.72;;
76119;SDS011;64852;48.092;-1.640;2023-01-28T15:12:51;7.68;;;7.28;;
76119;SDS011;64852;48.092;-1.640;2023-01-28T15:15:33;8.02;;;7.63;;
76119;SDS011;64852;48.092;-1.640;2023-01-28T15:18:02;8.00;;;7.60;;
76119;SDS011;64852;48.092;-1.640;2023-01-28T15:20:28;7.25;;;6.85;;
76119;SDS011;64852;48.092;-1.640;2023-01-28T15:22:55;6.38;;;6.07;;
76119;SDS011;64852;48.092;-1.640;2023-01-28T15:25:21;6.80;;;6.13;;
76119;SDS011;64852;48.092;-1.640;2023-01-28T15:27:51;7.22;;;6.82;;
76119;SDS011;64852;48.092;-1.640;2023-01-28T15:30:20;7.30;;;6.70;;
76119;SDS011;64852;48.092;-1.640;2023-01-28T15:32:58;6.20;;;5.80;;
76119;SDS011;64852;48.092;-1.640;2023-01-28T15:35:29;6.90;;;6.53;;
76119;SDS011;64852;48.092;-1.640;2023-01-28T15:37:56;15.65;;;7.20;;
76119;SDS011;64852;48.092;-1.640;2023-01-28T15:40:22;6.93;;;6.53;;
76119;SDS011;64852;48.092;-1.640;2023-01-28T15:42:50;7.75;;;7.15;;
76119;SDS011;64852;48.092;-1.640;2023-01-28T15:45:17;7.85;;;7.38;;
76119;SDS011;64852;48.092;-1.640;2023-01-28T15:47:45;6.18;;;5.88;;
76119;SDS011;64852;48.092;-1.640;2023-01-28T15:50:17;6.70;;;6.30;;
76119;SDS011;64852;48.092;-1.640;2023-01-28T15:52:45;7.40;;;7.00;;
76119;SDS011;64852;48.092;-1.640;2023-01-28T15:55:29;7.40;;;7.00;;
76119;SDS011;64852;48.092;-1.640;2023-01-28T16:00:44;8.30;;;7.65;;
76119;SDS011;64852;48.092;-1.640;2023-01-28T16:03:18;7.30;;;6.90;;
76119;SDS011;64852;48.092;-1.640;2023-01-28T16:05:59;7.47;;;7.07;;
76119;SDS011;64852;48.092;-1.640;2023-01-28T16:08:41;6.93;;;6.53;;
76119;SDS011;64852;48.092;-1.640;2023-01-28T16:11:21;8.00;;;7.50;;
76119;SDS011;64852;48.092;-1.640;2023-01-28T16:13:50;7.20;;;6.80;;
76119;SDS011;64852;48.092;-1.640;2023-01-28T16:16:22;6.95;;;6.55;;
76119;SDS011;64852;48.092;-1.640;2023-01-28T16:19:00;6.03;;;5.72;;
76119;SDS011;64852;48.092;-1.640;2023-01-28T16:21:30;7.80;;;7.20;;
76119;SDS011;64852;48.092;-1.640;2023-01-28T16:26:43;7.38;;;6.97;;
76119;SDS011;64852;48.092;-1.640;2023-01-28T16:29:22;5.95;;;5.65;;
76119;SDS011;64852;48.092;-1.640;2023-01-28T16:31:50;6.88;;;6.47;;
76119;SDS011;64852;48.092;-1.640;2023-01-28T16:34:15;6.97;;;6.57;;
76119;SDS011;64852;48.092;-1.640;2023-01-28T16:36:41;7.80;;;7.40;;
76119;SDS011;64852;48.092;-1.640;2023-01-28T16:39:07;7.97;;;7.57;;
76119;SDS011;64852;48.092;-1.640;2023-01-28T16:41:33;7.90;;;7.50;;
76119;SDS011;64852;48.092;-1.640;2023-01-28T16:44:10;7.30;;;6.90;;
76119;SDS011;64852;48.092;-1.640;2023-01-28T16:46:40;6.95;;;6.50;;
76119;SDS011;64852;48.092;-1.640;2023-01-28T16:51:31;7.22;;;6.82;;
76119;SDS011;64852;48.092;-1.640;2023-01-28T16:53:58;9.25;;;8.27;;
76119;SDS011;64852;48.092;-1.640;2023-01-28T16:56:25;7.63;;;7.22;;
76119;SDS011;64852;48.092;-1.640;2023-01-28T16:58:52;7.63;;;7.22;;
76119;SDS011;64852;48.092;-1.640;2023-01-28T17:01:18;6.80;;;6.40;;
76119;SDS011;64852;48.092;-1.640;2023-01-28T17:03:43;7.28;;;6.88;;
76119;SDS011;64852;48.092;-1.640;2023-01-28T17:06:11;7.87;;;7.40;;
76119;SDS011;64852;48.092;-1.640;2023-01-28T17:08:41;7.18;;;6.78;;
76119;SDS011;64852;48.092;-1.640;2023-01-28T17:11:07;7.50;;;7.10;;
76119;SDS011;64852;48.092;-1.640;2023-01-28T17:13:32;7.20;;;6.80;;
76119;SDS011;64852;48.092;-1.640;2023-01-28T17:16:01;7.63;;;7.13;;
76119;SDS011;64852;48.092;-1.640;2023-01-28T17:18:27;8.50;;;7.97;;
76119;SDS011;64852;48.092;-1.640;2023-01-28T17:20:53;7.82;;;7.43;;